MSC Mandraki — SZUH — position and weather

sailwx.info

Track history (hours):
 
Tides and Currents Weather Stations Pressure Air Temp Water Temp Dewpoint Dewpoint Depression Visibility Wind Speed Wind Dir Waves Ship Positions

MSC Mandraki

Last reported at 2016-Sep-26 20:33 UTC. Time now 2016-Sep-27 05:25 UTC.
Position N 50°27' W 000°10'.

Length 294 m; draft 11.8 m.

Type: Ship. MMSI: 240265000.

Date/timePositionNaut miles runAvg speedWind from/ knotsBaromVisibWave heightAir tempDewpointWater temp
2016-Sep-26 20:33N 50°27' W 000°10'1818.5
2016-Sep-26 19:33N 50°31' E 000°18'7418.4
2016-Sep-26 15:34N 51°18' E 001°49'3216.0
2016-Sep-26 13:33N 51°23' E 002°40'2914.6
2016-Sep-26 11:34N 51°25' E 003°27'28 9.2
2016-Sep-26 08:33N 51°24' E 004°11'7 1.2
2016-Sep-26 02:19N 51°20' E 004°20'0 0.0
2016-Sep-26 01:22N 51°20' E 004°20'0 0.0
2016-Sep-26 00:22N 51°20' E 004°20'0 0.0
2016-Sep-25 21:31N 51°20' E 004°20'0 0.0
2016-Sep-25 17:22N 51°20' E 004°20'0 0.0
2016-Sep-25 16:31N 51°20' E 004°20'0 0.0
2016-Sep-25 15:28N 51°20' E 004°20'0 0.0
2016-Sep-25 14:31N 51°20' E 004°20'0 0.0
2016-Sep-25 12:31N 51°20' E 004°20'0 0.0
2016-Sep-25 11:28N 51°20' E 004°20'0 0.0
2016-Sep-25 10:28N 51°20' E 004°20'0 0.0
2016-Sep-25 07:22N 51°20' E 004°20'0 0.0
2016-Sep-25 04:28N 51°20' E 004°20'0 0.0
2016-Sep-25 00:28N 51°20' E 004°20'0 0.0
2016-Sep-24 22:31N 51°20' E 004°20'0 0.0
2016-Sep-24 21:31N 51°20' E 004°20'0 0.0
2016-Sep-24 19:31N 51°20' E 004°20'0 0.0
2016-Sep-24 18:33N 51°20' E 004°20'2 2.2
2016-Sep-24 17:33N 51°21' E 004°17'0 0.0
2016-Sep-24 16:33N 51°21' E 004°17'13 6.4
2016-Sep-24 14:33N 51°24' E 003°57'2311.6
2016-Sep-24 12:33N 51°24' E 003°20'18 9.1
2016-Sep-24 10:33N 51°42' E 003°13'6 5.5
2016-Sep-24 09:33N 51°47' E 003°09'36 5.9
2016-Sep-24 03:33N 51°58' E 004°04'0 0.0
2016-Sep-24 02:33N 51°58' E 004°04'0 0.0
2016-Sep-24 01:33N 51°58' E 004°04'0 0.0
2016-Sep-24 00:33N 51°58' E 004°04'0 0.0
2016-Sep-23 19:33N 51°58' E 004°04'0 0.0
2016-Sep-23 17:33N 51°58' E 004°04'0 0.0
2016-Sep-23 16:33N 51°58' E 004°04'0 0.0
2016-Sep-23 15:33N 51°58' E 004°04'7 3.6
2016-Sep-23 13:34N 51°60' E 003°53'8812.6
2016-Sep-23 06:34N 51°45' E 001°31'3115.7
2016-Sep-23 04:34N 51°29' E 000°48'1111.3
2016-Sep-23 03:33N 51°30' E 000°30'0 0.0
2016-Sep-23 02:34N 51°30' E 000°30'0 0.0
2016-Sep-23 01:34N 51°30' E 000°30'0 0.0
2016-Sep-23 00:34N 51°30' E 000°30'0 0.0
2016-Sep-22 23:34N 51°30' E 000°30'0 0.0
2016-Sep-22 20:34N 51°30' E 000°30'37 4.6
2016-Sep-22 12:33N 51°41' E 001°26'8510.5
2016-Sep-22 04:32N 50°26' E 000°25'1818.6
2016-Sep-22 03:33N 50°21' W 000°02'6120.3
2016-Sep-22 00:33N 50°04' W 001°34'4522.3
2016-Sep-21 22:32N 49°51' W 002°41'12320.6
2016-Sep-21 16:33N 48°51' W 005°26'60717.8
2016-Sep-20 06:29N 39°14' W 009°52'6616.9
2016-Sep-20 02:33N 38°14' W 009°18'27 9.0
2016-Sep-19 23:29N 37°56' W 008°51'0 0.0
2016-Sep-19 19:32N 37°56' W 008°51'0 0.0
2016-Sep-19 18:32N 37°56' W 008°51'0 0.0
2016-Sep-19 16:29N 37°56' W 008°51'4 2.2
2016-Sep-19 14:33N 37°52' W 008°51'2 2.4
2016-Sep-19 13:33N 37°50' W 008°53'1 1.2
2016-Sep-19 12:33N 37°51' W 008°54'2 2.1
2016-Sep-19 11:33N 37°49' W 008°54'3517.4
2016-Sep-19 09:33N 37°17' W 009°12'3215.8
2016-Sep-19 07:33N 36°46' W 009°10'1818.0
2016-Sep-19 06:33N 36°39' W 008°49'5618.6
2016-Sep-19 03:33N 36°23' W 007°43'30517.9
2016-Sep-18 10:31N 36°25' W 001°24'1818.6
2016-Sep-18 09:33N 36°28' W 001°03'  
Track history (hours):
 
Tides and Currents Weather Stations Pressure Air Temp Water Temp Dewpoint Dewpoint Depression Visibility Wind Speed Wind Dir Waves Ship Positions

MSC Mandraki

Last reported at 2016-Sep-26 20:33 UTC. Time now 2016-Sep-27 05:25 UTC.
Position N 50°27' W 000°10'.

Length 294 m; draft 11.8 m.

Type: Ship. MMSI: 240265000.

Date/timePositionNaut miles runAvg speedWind from/ knotsBaromVisibWave heightAir tempDewpointWater temp
2016-Sep-26 20:33N 50°27' W 000°10'1818.5
2016-Sep-26 19:33N 50°31' E 000°18'7418.4
2016-Sep-26 15:34N 51°18' E 001°49'3216.0
2016-Sep-26 13:33N 51°23' E 002°40'2914.6
2016-Sep-26 11:34N 51°25' E 003°27'28 9.2
2016-Sep-26 08:33N 51°24' E 004°11'7 1.2
2016-Sep-26 02:19N 51°20' E 004°20'0 0.0
2016-Sep-26 01:22N 51°20' E 004°20'0 0.0
2016-Sep-26 00:22N 51°20' E 004°20'0 0.0
2016-Sep-25 21:31N 51°20' E 004°20'0 0.0
2016-Sep-25 17:22N 51°20' E 004°20'0 0.0
2016-Sep-25 16:31N 51°20' E 004°20'0 0.0
2016-Sep-25 15:28N 51°20' E 004°20'0 0.0
2016-Sep-25 14:31N 51°20' E 004°20'0 0.0
2016-Sep-25 12:31N 51°20' E 004°20'0 0.0
2016-Sep-25 11:28N 51°20' E 004°20'0 0.0
2016-Sep-25 10:28N 51°20' E 004°20'0 0.0
2016-Sep-25 07:22N 51°20' E 004°20'0 0.0
2016-Sep-25 04:28N 51°20' E 004°20'0 0.0
2016-Sep-25 00:28N 51°20' E 004°20'0 0.0
2016-Sep-24 22:31N 51°20' E 004°20'0 0.0
2016-Sep-24 21:31N 51°20' E 004°20'0 0.0
2016-Sep-24 19:31N 51°20' E 004°20'0 0.0
2016-Sep-24 18:33N 51°20' E 004°20'2 2.2
2016-Sep-24 17:33N 51°21' E 004°17'0 0.0
2016-Sep-24 16:33N 51°21' E 004°17'13 6.4
2016-Sep-24 14:33N 51°24' E 003°57'2311.6
2016-Sep-24 12:33N 51°24' E 003°20'18 9.1
2016-Sep-24 10:33N 51°42' E 003°13'6 5.5
2016-Sep-24 09:33N 51°47' E 003°09'36 5.9
2016-Sep-24 03:33N 51°58' E 004°04'0 0.0
2016-Sep-24 02:33N 51°58' E 004°04'0 0.0
2016-Sep-24 01:33N 51°58' E 004°04'0 0.0
2016-Sep-24 00:33N 51°58' E 004°04'0 0.0
2016-Sep-23 19:33N 51°58' E 004°04'0 0.0
2016-Sep-23 17:33N 51°58' E 004°04'0 0.0
2016-Sep-23 16:33N 51°58' E 004°04'0 0.0
2016-Sep-23 15:33N 51°58' E 004°04'7 3.6
2016-Sep-23 13:34N 51°60' E 003°53'8812.6
2016-Sep-23 06:34N 51°45' E 001°31'3115.7
2016-Sep-23 04:34N 51°29' E 000°48'1111.3
2016-Sep-23 03:33N 51°30' E 000°30'0 0.0
2016-Sep-23 02:34N 51°30' E 000°30'0 0.0
2016-Sep-23 01:34N 51°30' E 000°30'0 0.0
2016-Sep-23 00:34N 51°30' E 000°30'0 0.0
2016-Sep-22 23:34N 51°30' E 000°30'0 0.0
2016-Sep-22 20:34N 51°30' E 000°30'37 4.6
2016-Sep-22 12:33N 51°41' E 001°26'8510.5
2016-Sep-22 04:32N 50°26' E 000°25'1818.6
2016-Sep-22 03:33N 50°21' W 000°02'6120.3
2016-Sep-22 00:33N 50°04' W 001°34'4522.3
2016-Sep-21 22:32N 49°51' W 002°41'12320.6
2016-Sep-21 16:33N 48°51' W 005°26'60717.8
2016-Sep-20 06:29N 39°14' W 009°52'6616.9
2016-Sep-20 02:33N 38°14' W 009°18'27 9.0
2016-Sep-19 23:29N 37°56' W 008°51'0 0.0
2016-Sep-19 19:32N 37°56' W 008°51'0 0.0
2016-Sep-19 18:32N 37°56' W 008°51'0 0.0
2016-Sep-19 16:29N 37°56' W 008°51'4 2.2
2016-Sep-19 14:33N 37°52' W 008°51'2 2.4
2016-Sep-19 13:33N 37°50' W 008°53'1 1.2
2016-Sep-19 12:33N 37°51' W 008°54'2 2.1
2016-Sep-19 11:33N 37°49' W 008°54'3517.4
2016-Sep-19 09:33N 37°17' W 009°12'3215.8
2016-Sep-19 07:33N 36°46' W 009°10'1818.0
2016-Sep-19 06:33N 36°39' W 008°49'5618.6
2016-Sep-19 03:33N 36°23' W 007°43'30517.9
2016-Sep-18 10:31N 36°25' W 001°24'1818.6
2016-Sep-18 09:33N 36°28' W 001°03'  

Dump ship's entire track history